Time;durP1;ratioP1;P1;durP2;ratioP2;P2;SDS_P1;SDS_P2;PMS_P1;PMS_P2;Temp;Humidity;BMP_temperature;BMP_pressure;BME280_temperature;BME280_humidity;BME280_pressure;Samples;Min_cycle;Max_cycle;Signal;HPM_P1;HPM_P2
2023/01/13 00:04:41;;;;;;;1.42;1.05;;;;;;;19.92;53.70;96423.91;10625815;27;20072;-50
2023/01/13 00:10:01;;;;;;;1.75;0.98;;;;;;;19.91;53.79;96406.88;10625555;27;20075;-48
2023/01/13 00:15:21;;;;;;;2.00;1.00;;;;;;;19.90;53.84;96423.47;10625216;27;20092;-49
2023/01/13 00:20:40;;;;;;;1.35;0.98;;;;;;;19.87;53.88;96408.69;10625241;27;20047;-47
2023/01/13 00:26:03;;;;;;;1.15;0.80;;;;;;;19.87;53.79;96400.56;10638574;27;20478;-49
2023/01/13 00:31:22;;;;;;;2.08;0.88;;;;;;;19.85;53.93;96400.13;10624160;27;20054;-49
2023/01/13 00:36:42;;;;;;;1.05;0.80;;;;;;;19.84;54.00;96397.78;10638356;27;20039;-49
2023/01/13 00:47:39;;;;;;;1.00;0.60;;;;;;;19.81;54.05;96387.63;10623682;27;20085;-49
2023/01/13 00:52:59;;;;;;;2.20;1.08;;;;;;;19.78;54.07;96386.41;10624149;27;20043;-48
2023/01/13 00:58:18;;;;;;;0.73;0.70;;;;;;;19.78;54.01;96386.41;10624190;27;20148;-48
2023/01/13 01:03:38;;;;;;;0.98;0.88;;;;;;;19.76;54.14;96380.53;10623042;27;20392;-50
2023/01/13 01:08:57;;;;;;;2.15;0.80;;;;;;;19.75;54.11;96378.94;10623868;28;20047;-49
2023/01/13 01:14:17;;;;;;;1.83;0.80;;;;;;;19.73;54.16;96370.38;10623699;28;20051;-49
2023/01/13 01:19:37;;;;;;;0.70;0.70;;;;;;;19.71;54.17;96370.72;10623693;28;20108;-49
2023/01/13 01:24:57;;;;;;;1.60;0.73;;;;;;;19.71;54.15;96372.59;10622982;28;20486;-51
2023/01/13 01:30:16;;;;;;;1.33;0.70;;;;;;;19.68;54.17;96368.66;10622835;28;20498;-47
2023/01/13 01:35:40;;;;;;;1.83;1.02;;;;;;;19.67;54.16;96348.16;10623256;28;20062;-47
2023/01/13 01:41:00;;;;;;;1.23;0.88;;;;;;;19.65;54.25;96352.31;10636946;27;20399;-50
2023/01/13 01:46:19;;;;;;;0.80;0.80;;;;;;;19.66;54.23;96348.47;10622569;28;20104;-48
2023/01/13 01:51:44;;;;;;;1.05;0.90;;;;;;;19.65;54.30;96355.03;10623015;28;20055;-47
2023/01/13 01:57:05;;;;;;;1.02;0.70;;;;;;;19.61;54.27;96346.81;10622288;28;20104;-47
2023/01/13 02:02:26;;;;;;;0.95;0.75;;;;;;;19.61;54.27;96327.09;10623031;28;20043;-48
2023/01/13 02:07:47;;;;;;;1.25;0.90;;;;;;;19.60;54.21;96322.81;10636459;27;20542;-47
2023/01/13 02:13:09;;;;;;;0.93;0.70;;;;;;;19.59;54.28;96315.84;10606479;28;20051;-48
2023/01/13 02:19:13;;;;;;;1.00;0.70;;;;;;;19.56;54.32;96314.59;10627954;27;20062;-49
2023/01/13 02:24:55;;;;;;;0.60;0.57;;;;;;;19.54;54.30;96314.94;10608845;27;20073;-49
2023/01/13 02:36:12;;;;;;;0.68;0.57;;;;;;;19.51;54.40;96315.59;10629383;27;20054;-48
2023/01/13 02:47:35;;;;;;;1.58;0.60;;;;;;;19.50;54.27;96308.63;10628212;27;20521;-48
2023/01/13 02:53:02;;;;;;;0.68;0.60;;;;;;;19.47;54.31;96297.69;10613364;27;20051;-47
2023/01/13 02:58:25;;;;;;;0.90;0.70;;;;;;;19.46;54.32;96302.28;10628599;27;20051;-48
2023/01/13 03:03:45;;;;;;;1.48;0.80;;;;;;;19.46;54.35;96285.31;10642156;27;20051;-50
2023/01/13 03:09:18;;;;;;;1.40;0.73;;;;;;;19.45;54.34;96291.84;10627469;27;20051;-49
2023/01/13 03:15:05;;;;;;;0.98;0.80;;;;;;;19.42;54.42;96290.59;10612424;27;20092;-49
2023/01/13 03:20:28;;;;;;;1.15;0.70;;;;;;;19.41;54.42;96286.31;10596011;27;20104;-48
2023/01/13 03:26:08;;;;;;;1.33;0.70;;;;;;;19.40;54.55;96282.03;10611825;27;20100;-50
2023/01/13 03:31:31;;;;;;;0.60;0.50;;;;;;;19.38;54.41;96289.69;10611719;27;20116;-48
2023/01/13 03:36:52;;;;;;;0.57;0.57;;;;;;;19.37;54.58;96293.53;10626834;27;20062;-47
2023/01/13 03:42:17;;;;;;;0.77;0.60;;;;;;;19.37;54.45;96290.81;10626747;27;20043;-48
2023/01/13 03:47:45;;;;;;;0.98;0.63;;;;;;;19.34;54.37;96289.56;10627360;27;20051;-50
2023/01/13 03:53:27;;;;;;;0.80;0.57;;;;;;;19.33;54.64;96284.50;10626160;27;20066;-48
2023/01/13 03:58:47;;;;;;;0.90;0.60;;;;;;;19.30;54.56;96285.94;10610793;27;20055;-47
2023/01/13 04:04:10;;;;;;;0.60;0.50;;;;;;;19.30;54.52;96277.06;10609708;27;20058;-47
2023/01/13 04:09:39;;;;;;;0.98;0.70;;;;;;;19.29;54.64;96280.91;10610244;27;20047;-47
2023/01/13 04:14:58;;;;;;;0.77;0.60;;;;;;;19.28;54.62;96274.69;10625343;27;20058;-47
2023/01/13 04:20:19;;;;;;;0.77;0.50;;;;;;;19.26;54.46;96279.66;10638969;27;20046;-49
2023/01/13 04:25:39;;;;;;;1.00;0.70;;;;;;;19.26;54.57;96276.94;10625195;27;20051;-47
2023/01/13 04:30:59;;;;;;;0.85;0.60;;;;;;;19.25;54.64;96277.28;10624342;27;20066;-47
2023/01/13 04:36:23;;;;;;;1.02;0.45;;;;;;;19.24;54.64;96278.41;10624745;27;20123;-49
2023/01/13 04:41:58;;;;;;;0.40;0.40;;;;;;;19.22;54.45;96272.56;10623924;27;20076;-50
2023/01/13 04:47:18;;;;;;;0.50;0.50;;;;;;;19.21;54.57;96273.66;10623788;27;20065;-48
2023/01/13 04:52:37;;;;;;;0.90;0.60;;;;;;;19.20;54.55;96272.88;10624122;27;20051;-49
2023/01/13 04:58:04;;;;;;;0.52;0.50;;;;;;;19.19;54.57;96278.63;10624114;27;20055;-48
2023/01/13 05:03:25;;;;;;;1.00;0.57;;;;;;;19.16;54.42;96280.84;10624111;27;20047;-48
2023/01/13 05:08:44;;;;;;;0.70;0.52;;;;;;;19.15;54.52;96276.59;10623837;28;20051;-47
2023/01/13 05:19:42;;;;;;;0.50;0.50;;;;;;;19.13;54.70;96272.63;10623713;28;20762;-49
2023/01/13 05:25:20;;;;;;;0.57;0.55;;;;;;;19.11;54.41;96272.19;10623697;28;20051;-47
2023/01/13 05:30:42;;;;;;;0.90;0.57;;;;;;;19.11;54.67;96272.19;10623417;28;20058;-48
2023/01/13 05:36:02;;;;;;;1.63;0.55;;;;;;;19.09;54.88;96264.44;10623371;28;20096;-48
2023/01/13 05:47:00;;;;;;;0.65;0.55;;;;;;;19.09;54.93;96253.63;10622523;28;20063;-49
2023/01/13 05:52:19;;;;;;;0.85;0.60;;;;;;;19.10;54.91;96254.41;10627959;27;20051;-50
2023/01/13 05:57:38;;;;;;;0.30;0.30;;;;;;;19.10;54.84;96247.09;10630846;27;20063;-48
2023/01/13 06:02:57;;;;;;;0.55;0.30;;;;;;;19.11;54.61;96251.38;10630867;27;20051;-48
2023/01/13 06:08:17;;;;;;;0.50;0.30;;;;;;;19.12;53.61;96252.16;10629972;27;20103;-50
2023/01/13 06:13:37;;;;;;;0.80;0.57;;;;;;;19.12;54.21;96244.84;10629928;27;20047;-49
2023/01/13 06:18:56;;;;;;;0.50;0.47;;;;;;;19.13;54.28;96251.03;10629723;27;20062;-48
2023/01/13 06:24:15;;;;;;;0.50;0.50;;;;;;;19.15;54.19;96263.09;10629488;27;20487;-46
2023/01/13 06:29:35;;;;;;;0.88;0.52;;;;;;;19.16;54.11;96253.84;10643461;27;20479;-49
2023/01/13 06:35:00;;;;;;;0.80;0.60;;;;;;;19.20;54.15;96258.59;10628840;27;20058;-49
2023/01/13 06:40:20;;;;;;;1.05;0.57;;;;;;;19.22;54.29;96256.34;10613678;27;20055;-49
2023/01/13 06:45:41;;;;;;;1.13;0.50;;;;;;;19.23;54.15;96256.03;10635215;27;20070;-47
2023/01/13 06:51:01;;;;;;;1.65;0.45;;;;;;;19.25;54.55;96275.38;10612902;27;20054;-49
2023/01/13 06:56:21;;;;;;;0.57;0.40;;;;;;;19.27;54.62;96256.16;10628735;27;20055;-48
2023/01/13 07:01:40;;;;;;;1.08;0.47;;;;;;;19.29;54.00;96260.09;10641424;27;20051;-50
2023/01/13 07:06:59;;;;;;;1.13;0.60;;;;;;;19.31;53.68;96257.84;10628251;27;20089;-50
2023/01/13 07:12:19;;;;;;;0.90;0.57;;;;;;;19.32;53.58;96248.59;10627727;27;20059;-49
2023/01/13 07:17:38;;;;;;;2.45;0.68;;;;;;;19.35;53.87;96256.03;10641292;27;20536;-49
2023/01/13 07:22:57;;;;;;;2.05;0.70;;;;;;;19.38;53.68;96253.78;10626716;27;20043;-48
2023/01/13 07:28:17;;;;;;;6.53;1.70;;;;;;;19.41;53.37;96253.13;10625467;27;20043;-48
2023/01/13 07:33:36;;;;;;;6.78;1.58;;;;;;;19.41;53.37;96256.59;10626418;27;20043;-48
2023/01/13 07:38:55;;;;;;;6.10;2.00;;;;;;;19.43;53.62;96259.75;10626977;27;20497;-47
2023/01/13 07:44:15;;;;;;;9.40;2.38;;;;;;;19.45;53.49;96256.72;10626494;27;20078;-49
2023/01/13 07:49:34;;;;;;;7.72;2.25;;;;;;;19.48;53.58;96254.16;10626496;27;20066;-48
2023/01/13 07:54:53;;;;;;;11.65;1.98;;;;;;;19.52;53.53;96262.34;10640054;27;20054;-49
2023/01/13 08:00:13;;;;;;;9.40;2.30;;;;;;;19.54;53.57;96262.78;10639947;27;20095;-49
2023/01/13 08:05:34;;;;;;;8.25;2.60;;;;;;;19.54;53.57;96262.78;10625988;27;20055;-48
2023/01/13 08:10:58;;;;;;;8.82;2.42;;;;;;;19.59;53.62;96262.59;10625766;27;20383;-49
2023/01/13 08:16:17;;;;;;;10.85;2.58;;;;;;;19.61;53.53;96265.75;10623980;27;20793;-49
2023/01/13 08:21:37;;;;;;;5.88;2.33;;;;;;;-146.19;100.00;65364.44;10639102;27;20095;-48
2023/01/13 08:26:56;;;;;;;5.95;2.10;;;;;;;19.66;53.36;96260.13;10624499;27;20051;-47
2023/01/13 08:32:15;;;;;;;8.50;2.30;;;;;;;19.69;53.37;96255.94;10624936;27;20384;-50
2023/01/13 08:37:35;;;;;;;6.95;2.05;;;;;;;19.71;53.35;96264.50;10624061;27;20505;-49
2023/01/13 08:42:55;;;;;;;4.22;1.70;;;;;;;19.74;53.26;96269.28;10624701;27;20051;-50
2023/01/13 08:48:14;;;;;;;4.43;1.85;;;;;;;19.75;53.38;96260.03;10624536;27;20078;-50
2023/01/13 08:53:33;;;;;;;5.38;2.00;;;;;;;19.79;53.38;96266.31;10637889;27;20046;-50
2023/01/13 08:58:56;;;;;;;4.88;1.77;;;;;;;19.82;53.36;96260.25;10624335;27;20051;-49
2023/01/13 09:04:21;;;;;;;4.32;1.88;;;;;;;19.83;53.22;96267.22;10623905;27;20051;-49
2023/01/13 09:09:41;;;;;;;4.40;1.75;;;;;;;19.85;53.18;96267.66;10623654;28;20050;-47
2023/01/13 09:15:03;;;;;;;3.83;1.83;;;;;;;-146.19;100.00;65364.44;10623426;28;20058;-51
2023/01/13 09:20:22;;;;;;;6.82;1.70;;;;;;;-146.19;100.00;65364.44;10637170;27;20039;-47
2023/01/13 09:25:41;;;;;;;4.07;1.65;;;;;;;-146.19;100.00;65364.44;10626617;27;20055;-50
2023/01/13 09:31:01;;;;;;;4.97;1.80;;;;;;;-146.19;100.00;65364.44;10632202;27;20066;-48
2023/01/13 09:36:20;;;;;;;5.55;1.55;;;;;;;-146.19;100.00;65364.44;10631839;27;20069;-49
2023/01/13 09:47:26;;;;;;;3.78;1.63;;;;;;;-146.19;100.00;65364.44;10631018;27;20062;-47
2023/01/13 09:52:45;;;;;;;3.58;1.40;;;;;;;-146.19;100.00;65364.44;10631254;27;20051;-49
2023/01/13 09:58:16;;;;;;;3.42;1.35;;;;;;;-146.19;100.00;65364.44;10631176;27;20461;-49
2023/01/13 10:03:36;;;;;;;4.30;1.52;;;;;;;-146.19;100.00;65364.44;10631018;27;20043;-50
2023/01/13 10:08:56;;;;;;;4.07;1.70;;;;;;;-146.19;100.00;65364.44;10630741;27;20047;-50
2023/01/13 10:14:34;;;;;;;2.88;1.50;;;;;;;-146.19;100.00;65364.44;10644306;27;20031;-49
2023/01/13 10:20:05;;;;;;;3.42;1.40;;;;;;;-146.19;100.00;65364.44;10644036;27;20043;-49
2023/01/13 10:25:31;;;;;;;2.25;1.27;;;;;;;-146.19;100.00;65364.44;10629433;27;20050;-49
2023/01/13 10:30:50;;;;;;;4.07;1.52;;;;;;;-146.19;100.00;65364.44;10629864;27;20391;-49
2023/01/13 10:36:20;;;;;;;2.83;1.30;;;;;;;-146.19;100.00;65364.44;10629068;27;20051;-51
2023/01/13 10:41:39;;;;;;;2.88;1.50;;;;;;;-146.19;100.00;65364.44;10629264;27;20066;-48
2023/01/13 10:46:59;;;;;;;3.25;1.40;;;;;;;-146.19;100.00;65364.44;10616350;27;20055;-48
2023/01/13 10:52:30;;;;;;;2.60;1.20;;;;;;;-146.19;100.00;65364.44;10628847;27;20055;-49
2023/01/13 10:57:50;;;;;;;3.22;1.30;;;;;;;-146.19;100.00;65364.44;10628579;27;20055;-48
2023/01/13 11:03:16;;;;;;;2.00;1.13;;;;;;;-146.19;100.00;65364.44;10628421;27;20081;-46
2023/01/13 11:08:41;;;;;;;3.17;1.35;;;;;;;-146.19;100.00;65364.44;10612942;27;20066;-48
2023/01/13 11:20:05;;;;;;;2.85;1.30;;;;;;;-146.19;100.00;65364.44;10615025;27;20051;-49
2023/01/13 11:25:34;;;;;;;1.98;1.15;;;;;;;-146.19;100.00;65364.44;10611393;27;20050;-51
2023/01/13 11:31:12;;;;;;;2.70;1.10;;;;;;;-146.19;100.00;65364.44;10611956;27;20055;-49
2023/01/13 11:36:46;;;;;;;2.90;1.27;;;;;;;-146.19;100.00;65364.44;10626568;27;20054;-47
2023/01/13 11:42:22;;;;;;;1.95;1.02;;;;;;;-146.19;100.00;65364.44;10624212;27;20051;-46
2023/01/13 11:47:45;;;;;;;2.88;0.98;;;;;;;-146.19;100.00;65364.44;10625437;27;20060;-50
2023/01/13 11:53:39;;;;;;;2.67;1.10;;;;;;;-146.19;100.00;65364.44;10610912;27;20052;-48
2023/01/13 11:59:12;;;;;;;1.88;0.90;;;;;;;-146.19;100.00;65364.44;10625665;27;20054;-48
2023/01/13 12:04:39;;;;;;;1.58;1.00;;;;;;;19.85;53.18;96267.66;10639730;27;20043;-52
2023/01/13 12:10:17;;;;;;;2.27;1.10;;;;;;;20.25;53.28;96190.44;10625718;27;20129;-50
2023/01/13 12:16:24;;;;;;;2.83;1.27;;;;;;;20.25;53.12;96185.81;10625481;27;20319;-47
2023/01/13 12:21:56;;;;;;;2.08;1.10;;;;;;;20.28;52.90;96179.72;10604064;27;20174;-57
2023/01/13 12:27:45;;;;;;;1.83;0.80;;;;;;;20.29;52.85;96183.22;10625245;27;20096;-60
2023/01/13 12:33:18;;;;;;;3.30;1.20;;;;;;;20.31;52.88;96189.06;10638684;27;20039;-57
2023/01/13 12:38:50;;;;;;;2.67;1.10;;;;;;;20.30;52.78;96174.75;10609343;27;20051;-59
2023/01/13 12:44:16;;;;;;;1.85;0.93;;;;;;;-146.19;100.00;65364.44;10635822;27;20410;-55
2023/01/13 12:49:35;;;;;;;1.83;0.90;;;;;;;-146.19;100.00;65364.44;10623468;27;20046;-59
2023/01/13 12:54:55;;;;;;;1.45;0.70;;;;;;;-146.19;100.00;65364.44;10637880;27;20039;-54
2023/01/13 13:00:15;;;;;;;2.10;1.00;;;;;;;-146.19;100.00;65364.44;10623515;27;20138;-56
2023/01/13 13:06:02;;;;;;;1.17;0.70;;;;;;;-146.19;100.00;65364.44;10637668;27;20050;-57
2023/01/13 13:17:27;;;;;;;1.23;0.80;;;;;;;-146.19;100.00;65364.44;10611057;28;20384;-55
2023/01/13 13:22:49;;;;;;;1.08;0.70;;;;;;;-146.19;100.00;65364.44;10599136;28;20513;-58
2023/01/13 13:28:17;;;;;;;1.02;0.70;;;;;;;-146.19;100.00;65364.44;10600466;28;20047;-61
2023/01/13 13:33:51;;;;;;;1.67;0.80;;;;;;;-146.19;100.00;65364.44;10586579;28;20539;-57
2023/01/13 13:51:03;;;;;;;1.75;0.85;;;;;;;-146.19;100.00;65364.44;10599575;28;20044;-57
2023/01/13 13:56:25;;;;;;;1.38;1.00;;;;;;;-146.19;100.00;65364.44;10597586;28;20047;-60
2023/01/13 14:01:50;;;;;;;1.55;0.90;;;;;;;-146.19;100.00;65364.44;10599467;28;20502;-60
2023/01/13 14:07:27;;;;;;;1.13;0.80;;;;;;;-146.19;100.00;65364.44;10599408;28;20063;-57
2023/01/13 14:12:47;;;;;;;1.20;0.80;;;;;;;-146.19;100.00;65364.44;10603742;27;20089;-54
2023/01/13 14:18:13;;;;;;;0.57;0.47;;;;;;;-146.19;100.00;65364.44;10606248;27;20050;-49
2023/01/13 14:23:33;;;;;;;0.68;0.60;;;;;;;-146.19;100.00;65364.44;10586684;28;20499;-50
2023/01/13 14:28:52;;;;;;;0.80;0.70;;;;;;;-146.19;100.00;65364.44;10605190;27;20051;-50
2023/01/13 14:34:12;;;;;;;0.70;0.60;;;;;;;-146.19;100.00;65364.44;10621141;27;20039;-48
2023/01/13 14:39:35;;;;;;;0.70;0.68;;;;;;;-146.19;100.00;65364.44;10606480;27;20384;-48
2023/01/13 14:44:55;;;;;;;0.90;0.68;;;;;;;-146.19;100.00;65364.44;10604898;27;20063;-51
2023/01/13 14:50:18;;;;;;;0.90;0.70;;;;;;;-146.19;100.00;65364.44;10607374;27;20056;-51
2023/01/13 14:55:39;;;;;;;0.80;0.70;;;;;;;-146.19;100.00;65364.44;10586093;27;20800;-51
2023/01/13 15:01:28;;;;;;;0.90;0.68;;;;;;;-146.19;100.00;65364.44;10607594;27;20043;-46
2023/01/13 15:06:50;;;;;;;0.70;0.70;;;;;;;-146.19;100.00;65364.44;10627552;27;20384;-46
2023/01/13 15:12:23;;;;;;;1.00;0.68;;;;;;;-146.19;100.00;65364.44;10612566;27;20047;-46
2023/01/13 15:17:44;;;;;;;2.10;0.93;;;;;;;-146.19;100.00;65364.44;10612386;27;20077;-47
2023/01/13 15:23:04;;;;;;;0.95;0.77;;;;;;;-146.19;100.00;65364.44;10627098;27;20092;-49
2023/01/13 15:28:25;;;;;;;0.93;0.73;;;;;;;-146.19;100.00;65364.44;10627375;27;20058;-48
2023/01/13 15:33:45;;;;;;;1.45;0.80;;;;;;;-146.19;100.00;65364.44;10615328;27;20043;-48
2023/01/13 15:39:06;;;;;;;0.65;0.60;;;;;;;-146.19;100.00;65364.44;10607384;27;20093;-46
2023/01/13 15:50:04;;;;;;;1.65;0.68;;;;;;;-146.19;100.00;65364.44;10613538;27;20120;-50
2023/01/13 15:55:23;;;;;;;0.52;0.52;;;;;;;-146.19;100.00;65364.44;10625591;27;20051;-48
2023/01/13 16:00:43;;;;;;;31.23;7.72;;;;;;;-146.19;100.00;65364.44;10639765;27;20058;-47
2023/01/13 16:06:10;;;;;;;29.42;7.13;;;;;;;-146.19;100.00;65364.44;10588138;27;20100;-47
2023/01/13 16:11:29;;;;;;;14.40;3.58;;;;;;;-146.19;100.00;65364.44;10596637;28;20054;-48
2023/01/13 16:16:50;;;;;;;14.23;3.38;;;;;;;-146.19;100.00;65364.44;10595115;27;20051;-49
2023/01/13 16:22:11;;;;;;;12.80;3.15;;;;;;;-146.19;100.00;65364.44;10628762;27;20051;-48
2023/01/13 16:27:30;;;;;;;10.43;2.72;;;;;;;-146.19;100.00;65364.44;10625001;27;20055;-48
2023/01/13 16:32:50;;;;;;;10.48;2.20;;;;;;;-146.19;100.00;65364.44;10624804;27;20058;-49
2023/01/13 16:38:18;;;;;;;10.57;2.38;;;;;;;-146.19;100.00;65364.44;10613567;27;20051;-50
2023/01/13 16:43:37;;;;;;;6.25;2.20;;;;;;;-146.19;100.00;65364.44;10600629;27;20043;-49
2023/01/13 16:49:02;;;;;;;8.32;2.30;;;;;;;-146.19;100.00;65364.44;10602617;27;20070;-51
2023/01/13 16:54:21;;;;;;;7.50;2.20;;;;;;;-146.19;100.00;65364.44;10603187;27;20058;-50
2023/01/13 16:59:41;;;;;;;7.85;2.00;;;;;;;-146.19;100.00;65364.44;10600587;27;20047;-51
2023/01/13 17:05:00;;;;;;;6.38;1.98;;;;;;;-146.19;100.00;65364.44;10594994;27;20054;-50
2023/01/13 17:10:22;;;;;;;6.68;1.90;;;;;;;-146.19;100.00;65364.44;10599773;28;20054;-51
2023/01/13 17:15:41;;;;;;;5.68;1.80;;;;;;;-146.19;100.00;65364.44;10613664;27;20036;-52
2023/01/13 17:21:01;;;;;;;6.55;1.60;;;;;;;-146.19;100.00;65364.44;10610548;27;20084;-51
2023/01/13 17:26:28;;;;;;;5.60;1.95;;;;;;;-146.19;100.00;65364.44;10581090;28;20120;-50
2023/01/13 17:31:49;;;;;;;3.58;1.60;;;;;;;-146.19;100.00;65364.44;10580909;28;20047;-49
2023/01/13 17:37:09;;;;;;;6.03;1.80;;;;;;;-146.19;100.00;65364.44;10580881;28;20415;-50
2023/01/13 17:42:29;;;;;;;5.53;1.83;;;;;;;-146.19;100.00;65364.44;10580582;28;20104;-49
2023/01/13 17:47:48;;;;;;;4.93;1.67;;;;;;;-146.19;100.00;65364.44;10584240;28;20120;-47
2023/01/13 17:53:07;;;;;;;4.35;1.45;;;;;;;-146.19;100.00;65364.44;10588119;28;20055;-49
2023/01/13 17:58:27;;;;;;;3.92;1.70;;;;;;;-146.19;100.00;65364.44;10589008;27;20044;-50
2023/01/13 18:03:47;;;;;;;3.83;1.60;;;;;;;-146.19;100.00;65364.44;10598242;27;20052;-50
2023/01/13 18:09:06;;;;;;;6.55;1.60;;;;;;;-146.19;100.00;65364.44;10602518;27;20031;-47
2023/01/13 18:14:27;;;;;;;3.20;1.25;;;;;;;-146.19;100.00;65364.44;10616300;27;20055;-50
2023/01/13 18:31:03;;;;;;;2.97;1.30;;;;;;;-146.19;100.00;65364.44;10629793;27;20051;-49
2023/01/13 18:36:23;;;;;;;4.68;1.65;;;;;;;-146.19;100.00;65364.44;10643119;27;20043;-50
2023/01/13 18:47:22;;;;;;;3.40;1.35;;;;;;;-146.19;100.00;65364.44;10613269;27;20059;-48
2023/01/13 18:52:42;;;;;;;4.18;1.33;;;;;;;-146.19;100.00;65364.44;10613093;27;20043;-48
2023/01/13 18:58:01;;;;;;;4.60;1.60;;;;;;;-146.19;100.00;65364.44;10585376;28;20051;-49
2023/01/13 19:03:23;;;;;;;3.33;1.27;;;;;;;-146.19;100.00;65364.44;10614280;27;20046;-48
2023/01/13 19:08:44;;;;;;;3.65;1.17;;;;;;;-146.19;100.00;65364.44;10612217;27;20047;-50
2023/01/13 19:14:03;;;;;;;3.97;1.40;;;;;;;-146.19;100.00;65364.44;10627866;27;20043;-48
2023/01/13 19:19:23;;;;;;;4.07;1.50;;;;;;;-146.19;100.00;65364.44;10627862;27;20112;-49
2023/01/13 19:24:43;;;;;;;4.70;1.30;;;;;;;-146.19;100.00;65364.44;10627668;27;20047;-49
2023/01/13 19:30:03;;;;;;;2.88;1.17;;;;;;;-146.19;100.00;65364.44;10627465;27;20051;-49
2023/01/13 19:35:22;;;;;;;2.80;1.42;;;;;;;-146.19;100.00;65364.44;10627064;27;20096;-49
2023/01/13 19:40:42;;;;;;;4.05;1.33;;;;;;;-146.19;100.00;65364.44;10626928;27;20047;-52
2023/01/13 19:46:01;;;;;;;2.97;1.45;;;;;;;-146.19;100.00;65364.44;10626261;27;20123;-48
2023/01/13 19:51:20;;;;;;;2.47;1.00;;;;;;;-146.19;100.00;65364.44;10622287;27;20498;-51
2023/01/13 19:56:40;;;;;;;3.83;1.10;;;;;;;-146.19;100.00;65364.44;10640170;27;20066;-50
2023/01/13 20:02:01;;;;;;;2.13;1.10;;;;;;;-146.19;100.00;65364.44;10612771;27;20058;-48
2023/01/13 20:07:22;;;;;;;2.47;1.08;;;;;;;-146.19;100.00;65364.44;10602401;27;20059;-47
2023/01/13 20:12:41;;;;;;;3.45;1.48;;;;;;;-146.19;100.00;65364.44;10608690;27;20395;-48
2023/01/13 20:18:01;;;;;;;2.65;1.10;;;;;;;-146.19;100.00;65364.44;10625666;27;20055;-47
2023/01/13 20:23:20;;;;;;;3.38;1.15;;;;;;;-146.19;100.00;65364.44;10624024;27;20095;-48
2023/01/13 20:28:39;;;;;;;1.50;0.80;;;;;;;-146.19;100.00;65364.44;10602136;27;20077;-48
2023/01/13 20:33:59;;;;;;;2.75;1.30;;;;;;;-146.19;100.00;65364.44;10614273;27;20039;-50
2023/01/13 20:39:21;;;;;;;3.80;1.20;;;;;;;-146.19;100.00;65364.44;10617104;27;20080;-49
2023/01/13 20:44:43;;;;;;;3.05;1.20;;;;;;;-146.19;100.00;65364.44;10619002;27;20059;-49
2023/01/13 20:50:02;;;;;;;1.95;1.10;;;;;;;-146.19;100.00;65364.44;10624443;27;20051;-49
2023/01/13 20:55:22;;;;;;;3.22;1.23;;;;;;;-146.19;100.00;65364.44;10624342;27;20107;-50
2023/01/13 21:00:42;;;;;;;3.22;1.20;;;;;;;-146.19;100.00;65364.44;10637892;27;20050;-47
2023/01/13 21:06:01;;;;;;;2.67;1.40;;;;;;;-146.19;100.00;65364.44;10623440;27;20051;-47
2023/01/13 21:17:02;;;;;;;2.35;1.00;;;;;;;-146.19;100.00;65364.44;10623622;28;20051;-47
2023/01/13 21:22:22;;;;;;;4.70;1.38;;;;;;;-146.19;100.00;65364.44;10641749;27;20043;-49
2023/01/13 21:27:44;;;;;;;3.97;1.30;;;;;;;-146.19;100.00;65364.44;10631936;27;20047;-49
2023/01/13 21:33:05;;;;;;;2.90;1.20;;;;;;;-146.19;100.00;65364.44;10611423;27;20406;-46
2023/01/13 21:38:25;;;;;;;2.75;1.30;;;;;;;-146.19;100.00;65364.44;10616976;27;20522;-48
2023/01/13 21:49:23;;;;;;;2.85;1.27;;;;;;;-146.19;100.00;65364.44;10631653;27;20162;-49
2023/01/13 21:55:28;;;;;;;5.22;1.52;;;;;;;-146.19;100.00;65364.44;10630704;27;20047;-49
2023/01/13 22:00:25;;;;;;;4.13;1.83;;;;;;;20.30;52.78;96174.75;10626840;27;20051;-51
2023/01/13 22:05:45;;;;;;;4.40;1.90;;;;;;;20.37;51.89;96742.31;10630827;27;20047;-51
2023/01/13 22:11:05;;;;;;;3.50;1.60;;;;;;;20.35;51.94;96748.03;10629896;27;20104;-51
2023/01/13 22:16:25;;;;;;;5.47;1.80;;;;;;;20.34;51.84;96757.25;10630410;27;20043;-49
2023/01/13 22:21:44;;;;;;;4.78;1.88;;;;;;;-146.19;100.00;65364.44;10630212;27;20062;-48
2023/01/13 22:27:03;;;;;;;9.10;2.25;;;;;;;-146.19;100.00;65364.44;10614341;27;20055;-47
2023/01/13 22:32:23;;;;;;;5.18;1.75;;;;;;;-146.19;100.00;65364.44;10628465;27;20047;-49
2023/01/13 22:37:43;;;;;;;3.67;1.90;;;;;;;-146.19;100.00;65364.44;10621411;27;20054;-50
2023/01/13 22:43:02;;;;;;;4.95;2.05;;;;;;;-146.19;100.00;65364.44;10605314;27;20039;-49
2023/01/13 22:48:21;;;;;;;4.93;2.13;;;;;;;-146.19;100.00;65364.44;10606408;27;20059;-49
2023/01/13 22:53:41;;;;;;;5.78;2.05;;;;;;;-146.19;100.00;65364.44;10585781;28;20056;-48
2023/01/13 22:59:02;;;;;;;3.70;1.90;;;;;;;-146.19;100.00;65364.44;10600058;28;20051;-49
2023/01/13 23:04:22;;;;;;;4.63;1.85;;;;;;;-146.19;100.00;65364.44;10599840;28;20050;-47
2023/01/13 23:09:42;;;;;;;3.17;1.67;;;;;;;20.21;52.80;96785.38;10585780;28;20051;-49
2023/01/13 23:15:02;;;;;;;4.30;1.70;;;;;;;20.18;52.67;96779.84;10584851;28;20044;-49
2023/01/13 23:20:21;;;;;;;5.57;1.80;;;;;;;20.16;52.66;96790.97;10585475;28;20055;-49
2023/01/13 23:25:48;;;;;;;3.40;1.90;;;;;;;20.16;52.59;96796.38;10584717;28;20061;-48
2023/01/13 23:31:10;;;;;;;3.78;1.65;;;;;;;20.12;52.62;96793.53;10585101;28;20059;-49
2023/01/13 23:36:29;;;;;;;2.45;1.48;;;;;;;20.11;52.53;96791.16;10569995;28;20059;-49
2023/01/13 23:41:49;;;;;;;2.28;1.30;;;;;;;20.10;52.52;96795.00;10584482;28;20108;-49
2023/01/13 23:47:10;;;;;;;4.03;1.63;;;;;;;20.08;52.56;96802.66;10583585;28;20060;-50
2023/01/13 23:52:30;;;;;;;3.65;1.60;;;;;;;20.07;52.48;96806.47;10584152;28;20055;-51
2023/01/13 23:57:50;;;;;;;4.35;1.83;;;;;;;20.05;52.48;96811.41;10583903;28;20112;-51
